createdAt,value
2017-10-29T00:00:33.787Z,0
2017-10-29T00:01:14.321Z,0
2017-10-29T00:01:54.862Z,0
2017-10-29T00:02:35.395Z,0
2017-10-29T00:03:15.922Z,0
2017-10-29T00:03:56.450Z,0
2017-10-29T00:04:36.986Z,0
2017-10-29T00:05:17.516Z,0
2017-10-29T00:05:58.068Z,0
2017-10-29T00:06:38.602Z,0
2017-10-29T00:07:19.139Z,0
2017-10-29T00:07:59.664Z,0
2017-10-29T00:08:40.209Z,0
2017-10-29T00:09:20.729Z,0
2017-10-29T00:10:01.279Z,0
2017-10-29T00:10:41.821Z,0
2017-10-29T00:11:22.355Z,0
2017-10-29T00:12:02.881Z,0
2017-10-29T00:12:43.410Z,0
2017-10-29T00:13:23.942Z,0
2017-10-29T00:14:04.474Z,0
2017-10-29T00:14:45.009Z,0
2017-10-29T00:15:25.536Z,0
2017-10-29T00:16:06.079Z,0
2017-10-29T00:16:46.613Z,0
2017-10-29T00:17:27.150Z,0
2017-10-29T00:18:07.693Z,0
2017-10-29T00:18:48.225Z,0
2017-10-29T00:19:28.755Z,0
2017-10-29T00:20:09.293Z,0
2017-10-29T00:20:49.822Z,0
2017-10-29T00:21:30.366Z,0
2017-10-29T00:22:10.916Z,0
2017-10-29T00:22:51.463Z,0
2017-10-29T00:23:32.018Z,0
2017-10-29T00:24:12.565Z,0
2017-10-29T00:24:53.102Z,0
2017-10-29T00:25:33.641Z,0
2017-10-29T00:26:14.183Z,0
2017-10-29T00:26:54.711Z,0
2017-10-29T00:27:35.246Z,0
2017-10-29T00:28:15.780Z,0
2017-10-29T00:28:56.317Z,0
2017-10-29T00:29:36.857Z,0
2017-10-29T00:30:17.390Z,0
2017-10-29T00:30:57.936Z,0
2017-10-29T00:31:38.464Z,0
2017-10-29T00:32:18.999Z,0
2017-10-29T00:32:59.527Z,0
2017-10-29T00:33:40.058Z,0
2017-10-29T00:34:20.595Z,0
2017-10-29T00:35:01.131Z,0
2017-10-29T00:35:41.668Z,0
2017-10-29T00:36:22.195Z,0
2017-10-29T00:37:02.729Z,0
2017-10-29T00:37:43.277Z,0
2017-10-29T00:38:23.874Z,0
2017-10-29T00:39:04.407Z,0
2017-10-29T00:39:44.939Z,0
2017-10-29T00:40:25.477Z,0
2017-10-29T00:41:06.021Z,0
2017-10-29T00:41:46.555Z,0
2017-10-29T00:42:27.096Z,0
2017-10-29T00:43:07.624Z,0
2017-10-29T00:43:48.159Z,0
2017-10-29T00:44:28.702Z,0
2017-10-29T00:45:09.241Z,0
2017-10-29T00:45:49.770Z,0
2017-10-29T00:46:30.304Z,0
2017-10-29T00:47:10.851Z,0
2017-10-29T00:47:51.379Z,0
2017-10-29T00:48:31.915Z,0
2017-10-29T00:49:12.457Z,0
2017-10-29T00:49:52.992Z,0
2017-10-29T00:50:33.535Z,0
2017-10-29T00:51:14.068Z,0
2017-10-29T00:51:54.607Z,0
2017-10-29T00:52:35.145Z,0
2017-10-29T00:53:15.688Z,0
2017-10-29T00:53:56.242Z,0
2017-10-29T00:54:36.779Z,0
2017-10-29T00:55:17.311Z,0
2017-10-29T00:55:57.838Z,0
2017-10-29T00:56:38.377Z,0
2017-10-29T00:57:18.912Z,0
2017-10-29T00:57:59.430Z,0
2017-10-29T00:58:39.963Z,0
2017-10-29T00:59:20.504Z,0
2017-10-29T01:00:01.043Z,0
2017-10-29T01:00:41.582Z,0
2017-10-29T01:01:22.126Z,0
2017-10-29T01:02:02.663Z,0
2017-10-29T01:02:43.209Z,0
2017-10-29T01:03:23.741Z,0
2017-10-29T01:04:04.278Z,0
2017-10-29T01:04:44.819Z,0
2017-10-29T01:05:25.360Z,0
2017-10-29T01:06:05.890Z,0
2017-10-29T01:06:46.436Z,0
2017-10-29T01:07:26.971Z,0
2017-10-29T01:08:07.512Z,0
2017-10-29T01:08:48.034Z,0
2017-10-29T01:09:28.577Z,0
2017-10-29T01:10:09.159Z,0
2017-10-29T01:10:49.705Z,0
2017-10-29T01:11:30.293Z,0
2017-10-29T01:12:10.854Z,0
2017-10-29T01:12:51.401Z,0
2017-10-29T01:13:31.946Z,0
2017-10-29T01:14:12.479Z,0
2017-10-29T01:14:53.026Z,0
2017-10-29T01:15:33.554Z,0
2017-10-29T01:16:14.083Z,0
2017-10-29T01:16:54.625Z,0
2017-10-29T01:17:35.175Z,0
2017-10-29T01:18:15.699Z,0
2017-10-29T01:18:56.232Z,0
2017-10-29T01:19:36.765Z,0
2017-10-29T01:20:17.304Z,0
2017-10-29T01:20:57.842Z,0
2017-10-29T01:21:38.376Z,0
2017-10-29T01:22:18.908Z,0
2017-10-29T01:22:59.454Z,0
2017-10-29T01:23:39.987Z,0
2017-10-29T01:24:20.522Z,0
2017-10-29T01:25:01.064Z,0
2017-10-29T01:25:41.592Z,0
2017-10-29T01:26:22.126Z,0
2017-10-29T01:27:02.673Z,0
2017-10-29T01:27:43.208Z,0
2017-10-29T01:28:23.744Z,0
2017-10-29T01:29:04.278Z,0
2017-10-29T01:29:44.815Z,0
2017-10-29T01:30:25.431Z,0
2017-10-29T01:31:05.961Z,0
2017-10-29T01:31:46.503Z,0
2017-10-29T01:32:27.041Z,0
2017-10-29T01:33:07.560Z,0
2017-10-29T01:35:44.494Z,0
2017-10-29T01:36:25.032Z,0
2017-10-29T01:37:05.552Z,0
2017-10-29T01:37:46.087Z,0
2017-10-29T01:38:26.624Z,0
2017-10-29T01:39:07.158Z,0
2017-10-29T01:39:47.696Z,0
2017-10-29T01:40:28.236Z,0
2017-10-29T01:41:08.775Z,0
2017-10-29T01:41:49.314Z,0
2017-10-29T01:42:29.849Z,0
2017-10-29T01:43:10.376Z,0
2017-10-29T01:43:50.912Z,0
2017-10-29T01:44:31.451Z,0
2017-10-29T01:45:11.991Z,0
2017-10-29T01:45:52.528Z,0
2017-10-29T01:46:33.059Z,0
2017-10-29T01:47:13.608Z,0
2017-10-29T01:47:54.142Z,0
2017-10-29T01:48:34.680Z,0
2017-10-29T01:49:15.216Z,0
2017-10-29T01:49:55.749Z,0
2017-10-29T01:50:36.289Z,0
2017-10-29T01:51:16.821Z,0
2017-10-29T01:51:57.362Z,0
2017-10-29T01:52:37.901Z,0
2017-10-29T01:53:18.443Z,0
2017-10-29T01:53:58.980Z,0
2017-10-29T01:54:39.521Z,0
2017-10-29T01:55:20.063Z,0
2017-10-29T01:56:00.600Z,0
2017-10-29T01:56:41.133Z,0
2017-10-29T01:57:21.673Z,0
2017-10-29T01:58:02.207Z,0
2017-10-29T01:58:42.746Z,0
2017-10-29T01:59:23.285Z,0
2017-10-29T02:00:03.904Z,0
2017-10-29T02:00:44.375Z,0
2017-10-29T02:01:24.919Z,0
2017-10-29T02:02:05.448Z,0
2017-10-29T02:02:45.982Z,0
2017-10-29T02:03:26.521Z,0
2017-10-29T02:04:07.057Z,0
2017-10-29T02:04:47.593Z,0
2017-10-29T02:05:28.126Z,0
2017-10-29T02:06:08.664Z,0
2017-10-29T02:06:49.204Z,0
2017-10-29T02:07:29.729Z,0
2017-10-29T02:08:10.263Z,0
2017-10-29T02:08:50.800Z,0
2017-10-29T02:09:31.339Z,0
2017-10-29T02:10:11.875Z,0
2017-10-29T02:10:52.414Z,0
2017-10-29T02:11:32.944Z,0
2017-10-29T02:12:13.476Z,0
2017-10-29T02:12:54.012Z,0
2017-10-29T02:13:34.552Z,0
2017-10-29T02:14:15.089Z,0
2017-10-29T02:14:55.626Z,0
2017-10-29T02:15:36.164Z,0
2017-10-29T02:16:16.706Z,0
2017-10-29T02:16:57.235Z,0
2017-10-29T02:17:37.749Z,0
2017-10-29T02:18:18.289Z,0
2017-10-29T02:18:58.827Z,0
2017-10-29T02:19:39.358Z,0
2017-10-29T02:20:19.890Z,0
2017-10-29T02:21:00.424Z,0
2017-10-29T02:21:40.957Z,0
2017-10-29T02:22:21.486Z,0
2017-10-29T02:23:02.030Z,0
2017-10-29T02:23:42.566Z,0
2017-10-29T02:24:23.100Z,0
2017-10-29T02:25:03.633Z,0
2017-10-29T02:25:44.169Z,0
2017-10-29T02:26:24.702Z,0
2017-10-29T02:27:05.243Z,0
2017-10-29T02:27:45.786Z,0
2017-10-29T02:28:26.316Z,0
2017-10-29T02:29:06.868Z,0
2017-10-29T02:29:47.393Z,0
2017-10-29T02:30:27.922Z,0
2017-10-29T02:31:08.464Z,0
2017-10-29T02:31:49.003Z,0
2017-10-29T02:32:29.530Z,0
2017-10-29T02:33:10.071Z,0
2017-10-29T02:33:50.604Z,0
2017-10-29T02:34:31.131Z,0
2017-10-29T02:35:11.666Z,0
2017-10-29T02:35:52.198Z,0
2017-10-29T02:36:32.795Z,0
2017-10-29T02:37:13.328Z,0
2017-10-29T02:37:53.866Z,0
2017-10-29T02:38:34.405Z,0
2017-10-29T02:39:14.946Z,0
2017-10-29T02:39:55.479Z,0
2017-10-29T02:40:36.029Z,0
2017-10-29T02:41:16.571Z,0
2017-10-29T02:41:57.099Z,0
2017-10-29T02:42:37.629Z,0
2017-10-29T02:43:18.164Z,0
2017-10-29T02:43:58.702Z,0
2017-10-29T02:44:39.245Z,0
2017-10-29T02:45:19.782Z,0
2017-10-29T02:46:00.311Z,0
2017-10-29T02:46:40.847Z,0
2017-10-29T02:47:21.377Z,0
2017-10-29T02:48:01.926Z,0
2017-10-29T02:48:42.465Z,0
2017-10-29T02:49:23.003Z,0
2017-10-29T02:50:03.540Z,0
2017-10-29T02:50:44.086Z,0
2017-10-29T02:51:24.628Z,0
2017-10-29T02:52:05.160Z,0
2017-10-29T02:52:45.695Z,0
2017-10-29T02:53:26.233Z,0
2017-10-29T02:54:06.772Z,0
2017-10-29T02:54:47.308Z,0
2017-10-29T02:55:27.841Z,0
2017-10-29T02:56:08.391Z,0
2017-10-29T02:56:48.929Z,0
2017-10-29T02:57:29.456Z,0
2017-10-29T02:58:09.993Z,0
2017-10-29T02:58:50.513Z,0
2017-10-29T02:59:31.053Z,0
2017-10-29T03:00:11.592Z,0
2017-10-29T03:00:52.127Z,0
2017-10-29T03:01:32.677Z,0
2017-10-29T03:02:13.209Z,0
2017-10-29T03:02:53.736Z,0
2017-10-29T03:03:34.279Z,0
2017-10-29T03:04:14.805Z,0
2017-10-29T03:04:55.338Z,0
2017-10-29T03:05:35.870Z,0
2017-10-29T03:06:16.383Z,0
2017-10-29T03:06:56.920Z,0
2017-10-29T03:07:37.457Z,0
2017-10-29T03:08:17.977Z,0
2017-10-29T03:08:58.509Z,0
2017-10-29T03:09:39.043Z,0
2017-10-29T03:10:19.583Z,0
2017-10-29T03:11:00.128Z,0
2017-10-29T03:11:40.682Z,0
2017-10-29T03:12:21.205Z,0
2017-10-29T03:13:01.770Z,0
2017-10-29T03:13:42.294Z,0
2017-10-29T03:14:22.826Z,0
2017-10-29T03:15:03.374Z,0
2017-10-29T03:15:43.905Z,0
2017-10-29T03:16:24.442Z,0
2017-10-29T03:17:04.978Z,0
2017-10-29T03:17:45.510Z,0
2017-10-29T03:18:26.057Z,0
2017-10-29T03:19:06.590Z,0
2017-10-29T03:19:47.127Z,0
2017-10-29T03:20:27.661Z,0
2017-10-29T03:21:08.193Z,0
2017-10-29T03:21:48.732Z,0
2017-10-29T03:22:29.250Z,0
2017-10-29T03:23:09.810Z,0
2017-10-29T03:23:50.319Z,0
2017-10-29T03:24:30.854Z,0
2017-10-29T03:25:11.395Z,0
2017-10-29T03:25:51.928Z,0
2017-10-29T03:26:32.463Z,0
2017-10-29T03:27:12.994Z,0
2017-10-29T03:27:53.525Z,0
2017-10-29T03:28:34.057Z,0
2017-10-29T03:29:14.598Z,0
2017-10-29T03:29:55.137Z,0
2017-10-29T03:30:35.676Z,0
2017-10-29T03:31:16.199Z,0
2017-10-29T03:31:56.730Z,0
2017-10-29T03:32:37.268Z,0
2017-10-29T03:33:17.805Z,0
2017-10-29T03:33:58.334Z,0
2017-10-29T03:34:38.996Z,0
2017-10-29T03:35:19.578Z,0
2017-10-29T03:36:00.118Z,0
2017-10-29T03:36:40.642Z,0
2017-10-29T03:37:21.179Z,0
2017-10-29T03:38:01.727Z,0
2017-10-29T03:38:42.258Z,0
2017-10-29T03:39:22.791Z,0
2017-10-29T03:40:03.328Z,0
2017-10-29T03:40:43.854Z,0
2017-10-29T03:41:24.397Z,0
2017-10-29T03:42:04.936Z,0
2017-10-29T03:42:45.462Z,0
2017-10-29T03:43:25.998Z,0
2017-10-29T03:44:06.519Z,0
2017-10-29T03:44:47.057Z,0
2017-10-29T03:45:27.601Z,0
2017-10-29T03:46:08.134Z,0
2017-10-29T03:46:48.668Z,0
2017-10-29T03:47:29.203Z,0
2017-10-29T03:48:09.741Z,0
2017-10-29T03:48:50.269Z,0
2017-10-29T03:49:30.819Z,0
2017-10-29T03:50:11.352Z,0
2017-10-29T03:50:51.887Z,0
2017-10-29T03:51:32.420Z,0
2017-10-29T03:52:12.958Z,0
2017-10-29T03:52:53.506Z,0
2017-10-29T03:53:34.013Z,0
2017-10-29T03:54:14.557Z,0
2017-10-29T03:54:55.092Z,0
2017-10-29T03:55:35.621Z,0
2017-10-29T03:56:16.147Z,0
2017-10-29T03:56:56.680Z,0
2017-10-29T03:57:37.225Z,0
2017-10-29T03:58:17.761Z,0
2017-10-29T03:58:58.293Z,0
2017-10-29T03:59:38.828Z,0
2017-10-29T04:00:19.355Z,0
2017-10-29T04:00:59.883Z,0
2017-10-29T04:01:40.425Z,0
2017-10-29T04:02:20.960Z,0
2017-10-29T04:03:01.507Z,0
2017-10-29T04:03:42.024Z,0
2017-10-29T04:04:22.552Z,0
2017-10-29T04:05:03.091Z,0
2017-10-29T04:05:43.632Z,0
2017-10-29T04:06:24.156Z,0
2017-10-29T04:07:04.695Z,0
2017-10-29T04:07:45.227Z,0
2017-10-29T04:08:25.762Z,0
2017-10-29T04:09:06.291Z,0
2017-10-29T04:09:46.826Z,0
2017-10-29T04:10:27.400Z,0
2017-10-29T04:11:07.939Z,0
2017-10-29T04:11:48.476Z,0
2017-10-29T04:12:29.020Z,0
2017-10-29T04:13:09.554Z,0
2017-10-29T04:13:50.074Z,0
2017-10-29T04:14:30.611Z,0
2017-10-29T04:15:11.155Z,0
2017-10-29T04:15:51.686Z,0
2017-10-29T04:16:32.225Z,0
2017-10-29T04:17:12.756Z,0
2017-10-29T04:17:53.286Z,0
2017-10-29T04:18:33.806Z,0
2017-10-29T04:19:14.344Z,0
2017-10-29T04:19:54.879Z,0
2017-10-29T04:20:35.411Z,0
2017-10-29T04:21:15.951Z,0
2017-10-29T04:21:56.475Z,0
2017-10-29T04:22:37.021Z,0
2017-10-29T04:23:17.582Z,0
2017-10-29T04:23:58.117Z,0
2017-10-29T04:24:38.646Z,0
2017-10-29T04:25:19.185Z,0
2017-10-29T04:25:59.730Z,0
2017-10-29T04:26:40.264Z,0
2017-10-29T04:27:20.799Z,0
2017-10-29T04:28:01.345Z,0
2017-10-29T04:28:41.847Z,0
2017-10-29T04:29:22.392Z,0
2017-10-29T04:30:02.973Z,0
2017-10-29T04:30:43.517Z,0
2017-10-29T04:31:24.047Z,0
2017-10-29T04:32:04.635Z,0
2017-10-29T04:32:45.087Z,0
2017-10-29T04:33:25.629Z,0
2017-10-29T04:34:06.172Z,0
2017-10-29T04:34:46.708Z,0
2017-10-29T04:35:27.277Z,0
2017-10-29T04:36:07.818Z,0
2017-10-29T04:36:48.368Z,0
2017-10-29T04:37:28.878Z,0
2017-10-29T04:38:09.415Z,0
2017-10-29T04:38:49.940Z,0
2017-10-29T04:39:30.472Z,0
2017-10-29T04:40:11.075Z,0
2017-10-29T04:40:51.588Z,0
2017-10-29T04:41:32.184Z,0
2017-10-29T04:42:12.716Z,0
2017-10-29T04:42:53.238Z,0
2017-10-29T04:43:33.699Z,0
2017-10-29T04:44:14.231Z,0
2017-10-29T04:44:54.719Z,0
2017-10-29T04:45:35.289Z,0
2017-10-29T04:46:15.823Z,0
2017-10-29T04:46:56.363Z,0
2017-10-29T04:47:36.959Z,0
2017-10-29T04:48:17.515Z,0
2017-10-29T04:48:58.070Z,0
2017-10-29T04:49:38.612Z,0
2017-10-29T04:50:19.117Z,0
2017-10-29T04:50:59.649Z,0
2017-10-29T04:51:40.119Z,0
2017-10-29T04:52:20.677Z,0
2017-10-29T04:53:01.216Z,0
2017-10-29T04:53:41.761Z,0
2017-10-29T04:54:22.273Z,0
2017-10-29T04:55:02.839Z,0
2017-10-29T04:55:43.292Z,0
2017-10-29T04:56:23.829Z,0
2017-10-29T04:57:04.325Z,0
2017-10-29T04:57:44.844Z,0
2017-10-29T04:58:25.372Z,0
2017-10-29T04:59:05.902Z,0
2017-10-29T04:59:46.406Z,0
2017-10-29T05:00:26.944Z,0
2017-10-29T05:01:07.481Z,0
2017-10-29T05:01:48.021Z,0
2017-10-29T05:02:28.560Z,0
2017-10-29T05:03:09.096Z,0
2017-10-29T05:03:49.633Z,0
2017-10-29T05:04:30.170Z,0
2017-10-29T05:05:10.709Z,0
2017-10-29T05:05:51.249Z,0
2017-10-29T05:06:31.848Z,0
2017-10-29T05:07:12.386Z,0
2017-10-29T05:07:52.912Z,0
2017-10-29T05:08:33.469Z,0
2017-10-29T05:09:13.997Z,0
2017-10-29T05:09:54.540Z,0
2017-10-29T05:10:35.073Z,0
2017-10-29T05:11:15.575Z,0
2017-10-29T05:11:56.087Z,0
2017-10-29T05:12:36.599Z,0
2017-10-29T05:13:17.154Z,0
2017-10-29T05:13:57.652Z,0
2017-10-29T05:14:38.188Z,0
2017-10-29T05:15:18.669Z,0
2017-10-29T05:15:59.144Z,0
2017-10-29T05:16:39.670Z,0
2017-10-29T05:17:20.170Z,0
2017-10-29T05:18:00.665Z,0
2017-10-29T05:18:41.172Z,0
2017-10-29T05:19:21.665Z,0
2017-10-29T05:20:02.191Z,0
2017-10-29T05:20:42.826Z,0
2017-10-29T05:21:23.312Z,0
2017-10-29T05:22:03.832Z,0
2017-10-29T05:22:44.362Z,0
2017-10-29T05:23:24.843Z,0
2017-10-29T05:24:05.388Z,0
2017-10-29T05:24:45.892Z,0
2017-10-29T05:25:26.416Z,0
2017-10-29T05:26:06.905Z,0
2017-10-29T05:26:47.407Z,0
2017-10-29T05:27:27.963Z,0
2017-10-29T05:28:08.488Z,0
2017-10-29T05:28:48.964Z,0
2017-10-29T05:29:29.559Z,0
2017-10-29T05:30:10.023Z,0
2017-10-29T05:30:50.610Z,0
2017-10-29T05:31:31.193Z,0
2017-10-29T05:32:11.786Z,0
2017-10-29T05:32:52.262Z,0
2017-10-29T05:33:32.775Z,0
2017-10-29T05:34:13.330Z,0
2017-10-29T05:34:53.844Z,0
2017-10-29T05:35:34.335Z,0
2017-10-29T05:36:14.896Z,0
2017-10-29T05:36:55.367Z,0
2017-10-29T05:37:35.914Z,0
2017-10-29T05:38:16.447Z,0
2017-10-29T05:38:56.990Z,0
2017-10-29T05:39:37.554Z,0
2017-10-29T05:40:18.091Z,0
2017-10-29T05:40:58.630Z,0
2017-10-29T05:41:39.229Z,0
2017-10-29T05:42:19.754Z,0
2017-10-29T05:43:00.270Z,0
2017-10-29T05:43:40.794Z,0
2017-10-29T05:44:21.382Z,0
2017-10-29T05:45:01.895Z,0
2017-10-29T05:45:42.443Z,0
2017-10-29T05:46:22.946Z,0
2017-10-29T05:47:03.510Z,0
2017-10-29T05:47:43.980Z,0
2017-10-29T05:48:24.505Z,0
2017-10-29T05:49:05.080Z,0
2017-10-29T05:49:45.575Z,0
2017-10-29T05:50:26.163Z,0
2017-10-29T05:51:06.682Z,0
2017-10-29T05:51:47.227Z,0
2017-10-29T05:52:27.900Z,0
2017-10-29T05:53:08.358Z,0
2017-10-29T05:53:48.942Z,0
2017-10-29T05:54:29.672Z,0
2017-10-29T05:55:10.100Z,0
2017-10-29T05:55:50.651Z,0
2017-10-29T05:56:31.351Z,0
2017-10-29T05:57:11.923Z,0
2017-10-29T05:57:52.365Z,0
2017-10-29T05:58:32.911Z,0
2017-10-29T05:59:13.442Z,0
2017-10-29T05:59:53.966Z,0
2017-10-29T06:00:34.453Z,0
2017-10-29T06:01:14.985Z,0
2017-10-29T06:01:55.526Z,0
2017-10-29T06:02:36.065Z,0
2017-10-29T06:03:16.611Z,0
2017-10-29T06:03:57.162Z,0
2017-10-29T06:04:37.750Z,0
2017-10-29T06:05:18.282Z,0
2017-10-29T06:05:58.918Z,0
2017-10-29T06:06:39.517Z,0
2017-10-29T06:07:20.045Z,0
2017-10-29T06:08:00.597Z,0
2017-10-29T06:08:41.113Z,0
2017-10-29T06:09:21.636Z,0
2017-10-29T06:10:02.180Z,0
2017-10-29T06:10:42.708Z,0
2017-10-29T06:11:23.300Z,0
2017-10-29T06:12:03.798Z,0
2017-10-29T06:12:44.309Z,0
2017-10-29T06:13:24.828Z,0
2017-10-29T06:14:05.362Z,0
2017-10-29T06:14:45.904Z,0
2017-10-29T06:15:26.411Z,0
2017-10-29T06:16:06.982Z,0
2017-10-29T06:16:47.533Z,0
2017-10-29T06:17:28.084Z,0
2017-10-29T06:18:08.583Z,0
2017-10-29T06:18:49.296Z,0
2017-10-29T06:19:29.822Z,0
2017-10-29T06:20:10.287Z,0
2017-10-29T06:20:50.877Z,0
2017-10-29T06:21:31.459Z,0
2017-10-29T06:22:12.038Z,0
2017-10-29T06:22:52.640Z,0
2017-10-29T06:23:33.180Z,0
2017-10-29T06:24:13.741Z,0
2017-10-29T06:24:54.268Z,5
2017-10-29T06:25:34.792Z,5
2017-10-29T06:26:15.299Z,5
2017-10-29T06:26:55.813Z,5
2017-10-29T06:27:36.350Z,5
2017-10-29T06:28:16.788Z,5
2017-10-29T06:28:57.345Z,5
2017-10-29T06:29:37.848Z,5
2017-10-29T06:30:18.384Z,5
2017-10-29T06:30:58.886Z,5
2017-10-29T06:31:39.400Z,5
2017-10-29T06:32:19.890Z,5
2017-10-29T06:33:00.401Z,5
2017-10-29T06:33:40.948Z,5
2017-10-29T06:34:21.561Z,5
2017-10-29T06:35:02.087Z,5
2017-10-29T06:35:42.645Z,5
2017-10-29T06:36:23.144Z,5
2017-10-29T06:37:03.671Z,5
2017-10-29T06:37:44.222Z,5
2017-10-29T06:38:24.720Z,5
2017-10-29T06:39:05.182Z,5
2017-10-29T06:39:45.739Z,5
2017-10-29T06:40:26.281Z,10
2017-10-29T06:41:06.915Z,5
2017-10-29T06:41:47.477Z,10
2017-10-29T06:42:28.047Z,10
2017-10-29T06:43:08.549Z,10
2017-10-29T06:43:49.089Z,10
2017-10-29T06:44:29.604Z,10
2017-10-29T06:45:10.196Z,10
2017-10-29T06:45:50.708Z,5
2017-10-29T06:46:31.271Z,5
2017-10-29T06:47:11.761Z,5
2017-10-29T06:47:52.345Z,5
2017-10-29T06:48:32.801Z,5
2017-10-29T06:49:13.286Z,5
2017-10-29T06:49:53.865Z,10
2017-10-29T06:50:34.421Z,10
2017-10-29T06:51:14.971Z,10
2017-10-29T06:51:55.474Z,10
2017-10-29T06:52:35.941Z,15
2017-10-29T06:53:16.446Z,15
2017-10-29T06:53:56.975Z,10
2017-10-29T06:54:37.520Z,10
2017-10-29T06:55:18.092Z,10
2017-10-29T06:55:58.614Z,10
2017-10-29T06:56:39.128Z,15
2017-10-29T06:57:19.635Z,15
2017-10-29T06:58:00.172Z,15
2017-10-29T06:58:40.743Z,15
2017-10-29T06:59:21.299Z,15
2017-10-29T07:00:01.915Z,20
2017-10-29T07:00:42.536Z,20
2017-10-29T07:01:23.087Z,25
2017-10-29T07:02:03.580Z,20
2017-10-29T07:02:44.120Z,20
2017-10-29T07:03:24.664Z,20
2017-10-29T07:04:05.223Z,20
2017-10-29T07:04:45.779Z,20
2017-10-29T07:05:26.269Z,20
2017-10-29T07:06:06.831Z,25
2017-10-29T07:06:47.378Z,25
2017-10-29T07:07:27.928Z,35
2017-10-29T07:08:08.479Z,30
2017-10-29T07:08:49.070Z,35
2017-10-29T07:09:29.628Z,40
2017-10-29T07:10:10.079Z,35
2017-10-29T07:10:50.619Z,40
2017-10-29T07:11:31.161Z,45
2017-10-29T07:12:11.705Z,40
2017-10-29T07:12:52.235Z,40
2017-10-29T07:13:32.774Z,35
2017-10-29T07:14:13.342Z,35
2017-10-29T07:14:53.872Z,25
2017-10-29T07:15:34.459Z,25
2017-10-29T07:16:15.008Z,35
2017-10-29T07:16:55.566Z,35
2017-10-29T07:17:36.165Z,35
2017-10-29T07:18:16.746Z,45
2017-10-29T07:18:57.234Z,45
2017-10-29T07:19:37.778Z,55
2017-10-29T07:20:18.280Z,55
2017-10-29T07:20:58.868Z,60
2017-10-29T07:21:39.387Z,55
2017-10-29T07:22:19.915Z,50
2017-10-29T07:23:00.459Z,55
2017-10-29T07:23:40.967Z,60
2017-10-29T07:24:21.472Z,65
2017-10-29T07:25:02.053Z,70
2017-10-29T07:25:42.595Z,65
2017-10-29T07:26:23.091Z,80
2017-10-29T07:27:03.710Z,95
2017-10-29T07:27:44.154Z,80
2017-10-29T07:28:24.708Z,65
2017-10-29T07:29:05.224Z,75
2017-10-29T07:29:45.748Z,95
2017-10-29T07:30:26.284Z,80
2017-10-29T07:31:06.910Z,75
2017-10-29T07:31:47.445Z,80
2017-10-29T07:32:27.974Z,70
2017-10-29T07:33:08.502Z,85
2017-10-29T07:33:49.013Z,80
2017-10-29T07:34:29.644Z,65
2017-10-29T07:35:10.197Z,80
2017-10-29T07:35:50.738Z,95
2017-10-29T07:36:31.337Z,75
2017-10-29T07:37:11.840Z,55
2017-10-29T07:37:52.343Z,50
2017-10-29T07:38:32.872Z,75
2017-10-29T07:39:13.387Z,80
2017-10-29T07:39:53.889Z,70
2017-10-29T07:40:34.404Z,60
2017-10-29T07:41:14.881Z,65
2017-10-29T07:41:55.371Z,60
2017-10-29T07:42:36.000Z,55
2017-10-29T07:43:16.512Z,60
2017-10-29T07:43:57.070Z,55
2017-10-29T07:44:37.629Z,65
2017-10-29T07:45:18.186Z,65
2017-10-29T07:45:58.700Z,75
2017-10-29T07:46:39.242Z,85
2017-10-29T07:47:19.749Z,110
2017-10-29T07:48:00.296Z,115
2017-10-29T07:48:40.835Z,120
2017-10-29T07:49:21.392Z,100
2017-10-29T07:50:01.928Z,135
2017-10-29T07:50:42.480Z,150
2017-10-29T07:51:22.934Z,125
2017-10-29T07:52:03.445Z,120
2017-10-29T07:52:43.969Z,125
2017-10-29T07:53:24.497Z,135
2017-10-29T07:54:05.023Z,135
2017-10-29T07:54:45.563Z,140
2017-10-29T07:55:26.102Z,155
2017-10-29T07:56:06.618Z,140
2017-10-29T07:56:47.155Z,125
2017-10-29T07:57:27.705Z,120
2017-10-29T07:58:08.248Z,125
2017-10-29T07:58:48.820Z,125
2017-10-29T07:59:29.437Z,125
2017-10-29T08:00:10.028Z,135
2017-10-29T08:00:50.501Z,140
2017-10-29T08:01:31.058Z,150
2017-10-29T08:02:11.581Z,150
2017-10-29T08:02:52.152Z,145
2017-10-29T08:03:32.702Z,150
2017-10-29T08:04:13.293Z,185
2017-10-29T08:04:53.883Z,195
2017-10-29T08:05:34.519Z,170
2017-10-29T08:06:15.064Z,140
2017-10-29T08:06:55.642Z,155
2017-10-29T08:07:36.220Z,170
2017-10-29T08:08:16.885Z,165
2017-10-29T08:08:57.374Z,155
2017-10-29T08:09:37.928Z,140
2017-10-29T08:10:18.478Z,145
2017-10-29T08:10:59.034Z,190
2017-10-29T08:11:39.712Z,190
2017-10-29T08:12:20.270Z,195
2017-10-29T08:13:00.773Z,250
2017-10-29T08:13:41.325Z,230
2017-10-29T08:14:21.874Z,210
2017-10-29T08:15:02.416Z,215
2017-10-29T08:15:42.958Z,165
2017-10-29T08:16:23.475Z,140
2017-10-29T08:17:04.030Z,135
2017-10-29T08:17:44.623Z,150
2017-10-29T08:18:25.269Z,200
2017-10-29T08:19:05.846Z,155
2017-10-29T08:19:46.374Z,165
2017-10-29T08:20:26.889Z,145
2017-10-29T08:21:07.481Z,130
2017-10-29T08:21:48.098Z,140
2017-10-29T08:22:28.702Z,175
2017-10-29T08:23:09.205Z,160
2017-10-29T08:23:49.788Z,175
2017-10-29T08:24:30.366Z,205
2017-10-29T08:25:10.978Z,170
2017-10-29T08:25:51.444Z,145
2017-10-29T08:26:31.995Z,165
2017-10-29T08:27:12.577Z,195
2017-10-29T08:27:53.176Z,180
2017-10-29T08:28:33.703Z,205
2017-10-29T08:29:14.246Z,195
2017-10-29T08:29:55.044Z,200
2017-10-29T08:30:35.561Z,210
2017-10-29T08:31:16.112Z,265
2017-10-29T08:31:56.643Z,330
2017-10-29T08:32:37.206Z,395
2017-10-29T08:33:17.751Z,440
2017-10-29T08:33:58.287Z,445
2017-10-29T08:34:38.851Z,165
2017-10-29T08:35:19.416Z,465
2017-10-29T08:35:59.968Z,435
2017-10-29T08:36:40.477Z,550
2017-10-29T08:37:21.082Z,490
2017-10-29T08:38:01.593Z,415
2017-10-29T08:38:42.099Z,305
2017-10-29T08:39:22.693Z,275
2017-10-29T08:40:03.286Z,365
2017-10-29T08:40:43.848Z,355
2017-10-29T08:41:24.388Z,325
2017-10-29T08:42:04.939Z,305
2017-10-29T08:42:45.508Z,335
2017-10-29T08:43:26.116Z,270
2017-10-29T08:44:06.615Z,325
2017-10-29T08:44:47.138Z,315
2017-10-29T08:45:27.688Z,330
2017-10-29T08:46:08.253Z,355
2017-10-29T08:46:48.810Z,425
2017-10-29T08:47:29.352Z,395
2017-10-29T08:48:09.890Z,425
2017-10-29T08:48:50.450Z,465
2017-10-29T08:49:31.010Z,525
2017-10-29T08:50:11.522Z,590
2017-10-29T08:50:52.171Z,660
2017-10-29T08:51:32.756Z,695
2017-10-29T08:52:13.250Z,710
2017-10-29T08:52:53.769Z,725
2017-10-29T08:53:34.290Z,745
2017-10-29T08:54:14.798Z,765
2017-10-29T08:54:55.345Z,770
2017-10-29T08:55:35.845Z,775
2017-10-29T08:56:16.389Z,785
2017-10-29T08:56:56.901Z,775
2017-10-29T08:57:37.411Z,775
2017-10-29T08:58:17.929Z,735
2017-10-29T08:58:58.454Z,720
2017-10-29T08:59:38.943Z,740
2017-10-29T09:00:19.429Z,680
2017-10-29T09:00:59.930Z,780
2017-10-29T09:01:40.479Z,765
2017-10-29T09:02:20.978Z,715
2017-10-29T09:03:01.512Z,605
2017-10-29T09:03:42.016Z,205
2017-10-29T09:04:22.551Z,500
2017-10-29T09:05:03.065Z,460
2017-10-29T09:05:43.598Z,405
2017-10-29T09:06:24.155Z,365
2017-10-29T09:07:04.670Z,340
2017-10-29T09:07:45.193Z,335
2017-10-29T09:08:25.722Z,325
2017-10-29T09:09:06.326Z,325
2017-10-29T09:09:46.839Z,325
2017-10-29T09:10:27.378Z,320
2017-10-29T09:11:07.864Z,315
2017-10-29T09:11:48.371Z,315
2017-10-29T09:12:28.876Z,315
2017-10-29T09:13:09.494Z,315
2017-10-29T09:13:50.038Z,330
2017-10-29T09:14:30.584Z,335
2017-10-29T09:15:11.051Z,340
2017-10-29T09:15:51.614Z,350
2017-10-29T09:16:32.116Z,345
2017-10-29T09:17:12.626Z,345
2017-10-29T09:17:53.185Z,350
2017-10-29T09:18:33.699Z,375
2017-10-29T09:19:14.249Z,415
2017-10-29T09:19:54.793Z,425
2017-10-29T09:20:35.266Z,450
2017-10-29T09:21:15.782Z,490
2017-10-29T09:21:56.348Z,405
2017-10-29T09:22:36.898Z,445
2017-10-29T09:23:17.443Z,420
2017-10-29T09:23:57.930Z,300
2017-10-29T09:24:38.528Z,365
2017-10-29T09:25:19.106Z,335
2017-10-29T09:25:59.720Z,435
2017-10-29T09:26:40.378Z,440
2017-10-29T09:27:20.835Z,350
2017-10-29T09:28:01.366Z,510
2017-10-29T09:28:41.872Z,530
2017-10-29T09:29:22.396Z,465
2017-10-29T09:30:02.980Z,315
2017-10-29T09:30:43.480Z,355
2017-10-29T09:31:23.974Z,425
2017-10-29T09:32:04.489Z,565
2017-10-29T09:32:45.009Z,550
2017-10-29T09:33:25.482Z,355
2017-10-29T09:34:06.049Z,340
2017-10-29T09:34:46.525Z,500
2017-10-29T09:35:27.016Z,405
2017-10-29T09:36:07.552Z,440
2017-10-29T09:36:48.143Z,380
2017-10-29T09:37:28.631Z,305
2017-10-29T09:38:09.203Z,330
2017-10-29T09:38:49.715Z,215
2017-10-29T09:39:30.257Z,225
2017-10-29T09:40:10.837Z,255
2017-10-29T09:40:51.406Z,250
2017-10-29T09:41:31.947Z,275
2017-10-29T09:42:12.507Z,295
2017-10-29T09:42:53.037Z,330
2017-10-29T09:43:33.578Z,320
2017-10-29T09:44:14.053Z,315
2017-10-29T09:44:54.575Z,330
2017-10-29T09:45:35.112Z,385
2017-10-29T09:46:15.678Z,345
2017-10-29T09:46:56.222Z,320
2017-10-29T09:47:36.757Z,310
2017-10-29T09:48:17.340Z,185
2017-10-29T09:48:57.901Z,195
2017-10-29T09:49:38.460Z,230
2017-10-29T09:50:19.058Z,270